^^
Saratoga-Weather Station Historical Data
Daily Summary for February 22, 2020 Units:  Both    English   Metric
Daily Weekly Monthly Yearly Custom
  High: Low: Average:
Temperature: 39.6 °F /  4.2 °C 27.7 °F /  -2.4 °C 32.4 °F /  0.2 °C
Dew Point: 32.7 °F /  0.4 °C 26.2 °F /  -3.2 °C 28.9 °F /  -1.7 °C
Humidity: 96% 71% 88%
Wind Speed: 8.1mph /  13km/h - 0.4mph /  0.6km/h
Wind Gust: 11mph /  17.7km/h - -
Wind- - East
Pressure: 30.6 in /  1037.2 hPa 30.5 in /  1033.2 hPa -
Precipitation: 0.01 in /  0.2 mm    
Historical Graphs
 
 
Tabular Data for February 22, 2020
Time Temperature Dew Point Pressure Wind Wind Speed Wind Gust Humidity Rainfall Rate (Hourly) solar
00:00 30.6 °F /  -0.8 °C 28.8 °F /  -1.8 °C 30.6in /  1037.2hPa Calm     93% 0in /  0.0mm 0 W/m2
00:05 30.4 °F /  -0.9 °C 28.9 °F /  -1.7 °C 30.6in /  1037.2hPa Calm     94% 0in /  0.0mm 0 W/m2
00:10 30.2 °F /  -1 °C 28.4 °F /  -2 °C 30.6in /  1037.2hPa Calm     93% 0in /  0.0mm 0 W/m2
00:15 29.8 °F /  -1.2 °C 28 °F /  -2.2 °C 30.6in /  1037.2hPa Calm     93% 0in /  0.0mm 0 W/m2
00:20 29.8 °F /  -1.2 °C 28 °F /  -2.2 °C 30.6in /  1037.2hPa Calm     93% 0in /  0.0mm 0 W/m2
00:25 29.8 °F /  -1.2 °C 28.4 °F /  -2 °C 30.6in /  1037.2hPa Calm     94% 0in /  0.0mm 0 W/m2
00:30 29.7 °F /  -1.3 °C 28.2 °F /  -2.1 °C 30.6in /  1037.2hPa Calm     94% 0in /  0.0mm 0 W/m2
00:35 29.7 °F /  -1.3 °C 28.2 °F /  -2.1 °C 30.6in /  1037.2hPa Calm     94% 0in /  0.0mm 0 W/m2
00:40 29.7 °F /  -1.3 °C 28.2 °F /  -2.1 °C 30.6in /  1037.2hPa Calm     94% 0in /  0.0mm 0 W/m2
00:45 29.7 °F /  -1.3 °C 28.2 °F /  -2.1 °C 30.6in /  1037.2hPa Calm     94% 0in /  0.0mm 0 W/m2
00:50 29.5 °F /  -1.4 °C 28 °F /  -2.2 °C 30.6in /  1037.2hPa Calm     94% 0in /  0.0mm 0 W/m2
00:55 29.5 °F /  -1.4 °C 28 °F /  -2.2 °C 30.6in /  1036.9hPa Calm     94% 0in /  0.0mm 0 W/m2
01:00 29.5 °F /  -1.4 °C 28 °F /  -2.2 °C 30.6in /  1036.9hPa Calm     94% 0in /  0.0mm 0 W/m2
01:05 29.5 °F /  -1.4 °C 28 °F /  -2.2 °C 30.6in /  1036.9hPa Calm     94% 0in /  0.0mm 0 W/m2
01:11 29.5 °F /  -1.4 °C 28 °F /  -2.2 °C 30.6in /  1036.9hPa Calm     94% 0in /  0.0mm 0 W/m2
01:16 29.5 °F /  -1.4 °C 28 °F /  -2.2 °C 30.6in /  1036.9hPa Calm     94% 0in /  0.0mm 0 W/m2
01:21 29.3 °F /  -1.5 °C 27.9 °F /  -2.3 °C 30.6in /  1036.9hPa Calm     94% 0in /  0.0mm 0 W/m2
01:26 29.1 °F /  -1.6 °C 27.7 °F /  -2.4 °C 30.6in /  1036.9hPa Calm   1mph /  1.6km/h 94% 0in /  0.0mm 0 W/m2
01:31 29.3 °F /  -1.5 °C 27.9 °F /  -2.3 °C 30.6in /  1036.9hPa Calm     94% 0in /  0.0mm 0 W/m2
01:36 29.3 °F /  -1.5 °C 27.9 °F /  -2.3 °C 30.6in /  1036.9hPa Calm     94% 0in /  0.0mm 0 W/m2
01:41 29.5 °F /  -1.4 °C 28 °F /  -2.2 °C 30.6in /  1036.6hPa Calm     94% 0in /  0.0mm 0 W/m2
01:46 29.3 °F /  -1.5 °C 27.9 °F /  -2.3 °C 30.6in /  1036.6hPa Calm     94% 0in /  0.0mm 0 W/m2
01:51 29.1 °F /  -1.6 °C 27.7 °F /  -2.4 °C 30.6in /  1036.6hPa Calm     94% 0in /  0.0mm 0 W/m2
01:56 28.9 °F /  -1.7 °C 27.5 °F /  -2.5 °C 30.6in /  1036.2hPa Calm     94% 0in /  0.0mm 0 W/m2
02:01 28.9 °F /  -1.7 °C 27.5 °F /  -2.5 °C 30.6in /  1036.6hPa Calm     94% 0in /  0.0mm 0 W/m2
02:06 28.8 °F /  -1.8 °C 27.3 °F /  -2.6 °C 30.6in /  1036.2hPa Calm     94% 0in /  0.0mm 0 W/m2
02:11 28.8 °F /  -1.8 °C 27.3 °F /  -2.6 °C 30.6in /  1036.2hPa Calm     94% 0in /  0.0mm 0 W/m2
02:16 28.8 °F /  -1.8 °C 27.3 °F /  -2.6 °C 30.6in /  1036.2hPa Calm     94% 0in /  0.0mm 0 W/m2
02:21 28.6 °F /  -1.9 °C 27.1 °F /  -2.7 °C 30.6in /  1036.2hPa Calm     94% 0in /  0.0mm 0 W/m2
02:26 28.6 °F /  -1.9 °C 27.1 °F /  -2.7 °C 30.6in /  1036.2hPa Calm     94% 0in /  0.0mm 0 W/m2
02:31 28.6 °F /  -1.9 °C 27.3 °F /  -2.6 °C 30.6in /  1036.2hPa Calm     95% 0in /  0.0mm 0 W/m2
02:36 28.6 °F /  -1.9 °C 27.3 °F /  -2.6 °C 30.6in /  1036.2hPa Calm     95% 0in /  0.0mm 0 W/m2
02:41 28.4 °F /  -2 °C 27.1 °F /  -2.7 °C 30.6in /  1036.2hPa Calm     95% 0in /  0.0mm 0 W/m2
02:46 28.4 °F /  -2 °C 27.1 °F /  -2.7 °C 30.6in /  1036.2hPa Calm     95% 0in /  0.0mm 0 W/m2
02:51 28.4 °F /  -2 °C 27.1 °F /  -2.7 °C 30.6in /  1036.2hPa Calm     95% 0in /  0.0mm 0 W/m2
02:56 28.4 °F /  -2 °C 27.1 °F /  -2.7 °C 30.6in /  1035.9hPa Calm     95% 0in /  0.0mm 0 W/m2
03:01 28.4 °F /  -2 °C 27.1 °F /  -2.7 °C 30.6in /  1035.9hPa Calm     95% 0in /  0.0mm 0 W/m2
03:06 28.4 °F /  -2 °C 27.1 °F /  -2.7 °C 30.6in /  1035.9hPa Calm     95% 0in /  0.0mm 0 W/m2
03:12 28.2 °F /  -2.1 °C 27 °F /  -2.8 °C 30.6in /  1035.6hPa Calm     95% 0in /  0.0mm 0 W/m2
03:17 28 °F /  -2.2 °C 26.8 °F /  -2.9 °C 30.6in /  1035.9hPa Calm     95% 0in /  0.0mm 0 W/m2
03:22 28 °F /  -2.2 °C 26.8 °F /  -2.9 °C 30.6in /  1035.6hPa Calm     95% 0in /  0.0mm 0 W/m2
03:27 28 °F /  -2.2 °C 26.8 °F /  -2.9 °C 30.6in /  1035.6hPa Calm     95% 0in /  0.0mm 0 W/m2
03:32 28 °F /  -2.2 °C 26.8 °F /  -2.9 °C 30.6in /  1035.6hPa Calm     95% 0in /  0.0mm 0 W/m2
03:37 28 °F /  -2.2 °C 26.8 °F /  -2.9 °C 30.6in /  1035.9hPa Calm     95% 0in /  0.0mm 0 W/m2
03:42 27.9 °F /  -2.3 °C 26.6 °F /  -3 °C 30.6in /  1035.6hPa Calm     95% 0in /  0.0mm 0 W/m2
03:47 28 °F /  -2.2 °C 26.8 °F /  -2.9 °C 30.6in /  1035.6hPa Calm     95% 0in /  0.0mm 0 W/m2
03:52 28 °F /  -2.2 °C 26.8 °F /  -2.9 °C 30.6in /  1035.6hPa Calm     95% 0in /  0.0mm 0 W/m2
03:57 28.2 °F /  -2.1 °C 27 °F /  -2.8 °C 30.6in /  1035.6hPa Calm     95% 0in /  0.0mm 0 W/m2
04:02 28.2 °F /  -2.1 °C 27 °F /  -2.8 °C 30.6in /  1035.6hPa Calm   2mph /  3.2km/h 95% 0in /  0.0mm 0 W/m2
04:07 28.2 °F /  -2.1 °C 27 °F /  -2.8 °C 30.6in /  1035.6hPa Calm     95% 0in /  0.0mm 0 W/m2
04:12 28.2 °F /  -2.1 °C 27 °F /  -2.8 °C 30.6in /  1035.6hPa Calm   2mph /  3.2km/h 95% 0in /  0.0mm 0 W/m2
04:17 28.2 °F /  -2.1 °C 27 °F /  -2.8 °C 30.6in /  1035.6hPa Calm     95% 0in /  0.0mm 0 W/m2
04:22 28.6 °F /  -1.9 °C 27.3 °F /  -2.6 °C 30.6in /  1035.6hPa Calm   1mph /  1.6km/h 95% 0in /  0.0mm 0 W/m2
04:27 28.9 °F /  -1.7 °C 27.7 °F /  -2.4 °C 30.6in /  1035.6hPa Calm     95% 0in /  0.0mm 0 W/m2
04:32 29.1 °F /  -1.6 °C 28 °F /  -2.2 °C 30.6in /  1035.6hPa Calm     96% 0in /  0.0mm 0 W/m2
04:37 29.3 °F /  -1.5 °C 28 °F /  -2.2 °C 30.6in /  1035.6hPa Calm   1mph /  1.6km/h 95% 0in /  0.0mm 0 W/m2
04:42 29.3 °F /  -1.5 °C 28 °F /  -2.2 °C 30.6in /  1035.6hPa Calm     95% 0in /  0.0mm 0 W/m2
04:47 29.5 °F /  -1.4 °C 28.2 °F /  -2.1 °C 30.6in /  1035.6hPa Calm   1mph /  1.6km/h 95% 0in /  0.0mm 0 W/m2
04:52 29.3 °F /  -1.5 °C 28 °F /  -2.2 °C 30.6in /  1035.9hPa Calm   1mph /  1.6km/h 95% 0in /  0.0mm 0 W/m2
04:57 29.3 °F /  -1.5 °C 28 °F /  -2.2 °C 30.6in /  1035.9hPa Calm   1mph /  1.6km/h 95% 0in /  0.0mm 0 W/m2
05:02 29.3 °F /  -1.5 °C 28 °F /  -2.2 °C 30.6in /  1035.9hPa Calm     95% 0in /  0.0mm 0 W/m2
05:07 29.1 °F /  -1.6 °C 27.7 °F /  -2.4 °C 30.6in /  1035.6hPa Calm     94% 0in /  0.0mm 0 W/m2
05:12 28.9 °F /  -1.7 °C 27.5 °F /  -2.5 °C 30.6in /  1035.6hPa Calm     94% 0in /  0.0mm 0 W/m2
05:17 28.9 °F /  -1.7 °C 27.5 °F /  -2.5 °C 30.6in /  1035.6hPa Calm     94% 0in /  0.0mm 0 W/m2
05:22 28.8 °F /  -1.8 °C 27.3 °F /  -2.6 °C 30.6in /  1035.6hPa Calm     94% 0in /  0.0mm 0 W/m2
05:27 28.8 °F /  -1.8 °C 27.3 °F /  -2.6 °C 30.6in /  1035.6hPa Calm     94% 0in /  0.0mm 0 W/m2
05:32 28.8 °F /  -1.8 °C 27.3 °F /  -2.6 °C 30.6in /  1035.6hPa Calm     94% 0in /  0.0mm 0 W/m2
05:37 28.8 °F /  -1.8 °C 27.3 °F /  -2.6 °C 30.6in /  1035.6hPa Calm     94% 0in /  0.0mm 0 W/m2
05:42 28.8 °F /  -1.8 °C 27.3 °F /  -2.6 °C 30.6in /  1035.6hPa Calm     94% 0in /  0.0mm 0 W/m2
05:47 28.6 °F /  -1.9 °C 27.1 °F /  -2.7 °C 30.6in /  1035.6hPa Calm     94% 0in /  0.0mm 0 W/m2
05:52 28.8 °F /  -1.8 °C 27.5 °F /  -2.5 °C 30.6in /  1035.6hPa Calm     95% 0in /  0.0mm 0 W/m2
05:57 29.1 °F /  -1.6 °C 27.9 °F /  -2.3 °C 30.6in /  1035.6hPa Calm     95% 0in /  0.0mm 0 W/m2
06:02 29.1 °F /  -1.6 °C 27.9 °F /  -2.3 °C 30.6in /  1035.2hPa Calm     95% 0in /  0.0mm 0 W/m2
06:07 29.1 °F /  -1.6 °C 27.9 °F /  -2.3 °C 30.6in /  1035.2hPa Calm     95% 0in /  0.0mm 0 W/m2
06:12 29.3 °F /  -1.5 °C 28 °F /  -2.2 °C 30.6in /  1035.2hPa Calm     95% 0in /  0.0mm 0 W/m2
06:17 29.5 °F /  -1.4 °C 28 °F /  -2.2 °C 30.6in /  1035.2hPa Calm     94% 0in /  0.0mm 0 W/m2
06:22 29.5 °F /  -1.4 °C 28 °F /  -2.2 °C 30.6in /  1035.2hPa Calm     94% 0in /  0.0mm 0 W/m2
06:27 29.5 °F /  -1.4 °C 28 °F /  -2.2 °C 30.6in /  1035.2hPa Calm   1mph /  1.6km/h 94% 0in /  0.0mm 0 W/m2
06:32 29.3 °F /  -1.5 °C 27.9 °F /  -2.3 °C 30.6in /  1035.2hPa Calm     94% 0in /  0.0mm 0 W/m2
06:37 29.3 °F /  -1.5 °C 27.9 °F /  -2.3 °C 30.6in /  1035.2hPa Calm     94% 0in /  0.0mm 0 W/m2
06:42 29.5 °F /  -1.4 °C 28.2 °F /  -2.1 °C 30.6in /  1035.2hPa Calm     95% 0in /  0.0mm 0 W/m2
06:47 29.5 °F /  -1.4 °C 28 °F /  -2.2 °C 30.6in /  1035.2hPa Calm     94% 0in /  0.0mm 0 W/m2
06:52 29.3 °F /  -1.5 °C 27.9 °F /  -2.3 °C 30.6in /  1035.2hPa Calm     94% 0in /  0.0mm 0 W/m2
06:57 29.1 °F /  -1.6 °C 27.7 °F /  -2.4 °C 30.6in /  1035.2hPa Calm     94% 0in /  0.0mm 0 W/m2
07:02 28.9 °F /  -1.7 °C 27.5 °F /  -2.5 °C 30.6in /  1035.2hPa Calm     94% 0in /  0.0mm 0 W/m2
07:07 28.9 °F /  -1.7 °C 27.5 °F /  -2.5 °C 30.6in /  1035.2hPa Calm     94% 0in /  0.0mm 0 W/m2
07:12 28.9 °F /  -1.7 °C 27.5 °F /  -2.5 °C 30.6in /  1035.2hPa Calm   1mph /  1.6km/h 94% 0in /  0.0mm 0 W/m2
07:17 28.9 °F /  -1.7 °C 27.5 °F /  -2.5 °C 30.6in /  1035.2hPa Calm     94% 0in /  0.0mm 0 W/m2
07:22 28.9 °F /  -1.7 °C 27.5 °F /  -2.5 °C 30.6in /  1035.2hPa Calm     94% 0in /  0.0mm 0 W/m2
07:27 28.8 °F /  -1.8 °C 27.3 °F /  -2.6 °C 30.6in /  1035.2hPa Calm     94% 0in /  0.0mm 0 W/m2
07:32 28.8 °F /  -1.8 °C 27.3 °F /  -2.6 °C 30.6in /  1035.2hPa Calm     94% 0in /  0.0mm 0 W/m2
07:37 28.8 °F /  -1.8 °C 27.3 °F /  -2.6 °C 30.6in /  1035.2hPa Calm     94% 0in /  0.0mm 0 W/m2
07:42 28.8 °F /  -1.8 °C 27.3 °F /  -2.6 °C 30.6in /  1035.2hPa Calm     94% 0in /  0.0mm 0 W/m2
07:47 28.8 °F /  -1.8 °C 27.3 °F /  -2.6 °C 30.6in /  1035.2hPa Calm     94% 0in /  0.0mm 0 W/m2
07:52 28.8 °F /  -1.8 °C 27.3 °F /  -2.6 °C 30.6in /  1035.2hPa Calm     94% 0in /  0.0mm 0 W/m2
07:57 28.8 °F /  -1.8 °C 27.3 °F /  -2.6 °C 30.6in /  1035.2hPa Calm     94% 0in /  0.0mm 0 W/m2
08:02 28.6 °F /  -1.9 °C 27.1 °F /  -2.7 °C 30.6in /  1035.6hPa Calm     94% 0in /  0.0mm 0 W/m2
08:07 28.2 °F /  -2.1 °C 26.4 °F /  -3.1 °C 30.6in /  1035.6hPa Calm     93% 0in /  0.0mm 0 W/m2
08:12 28 °F /  -2.2 °C 26.2 °F /  -3.2 °C 30.6in /  1035.6hPa Calm     93% 0in /  0.0mm 0 W/m2
08:17 27.9 °F /  -2.3 °C 26.4 °F /  -3.1 °C 30.6in /  1035.6hPa Calm     94% 0in /  0.0mm 0 W/m2
08:22 27.7 °F /  -2.4 °C 26.2 °F /  -3.2 °C 30.6in /  1035.9hPa Calm     94% 0in /  0.0mm 0 W/m2
08:27 27.7 °F /  -2.4 °C 26.2 °F /  -3.2 °C 30.6in /  1035.9hPa Calm     94% 0in /  0.0mm 5 W/m2
08:32 27.7 °F /  -2.4 °C 26.2 °F /  -3.2 °C 30.6in /  1035.6hPa Calm     94% 0in /  0.0mm 7 W/m2
08:37 27.9 °F /  -2.3 °C 26.4 °F /  -3.1 °C 30.6in /  1035.6hPa Calm     94% 0in /  0.0mm 11 W/m2
08:42 28 °F /  -2.2 °C 26.6 °F /  -3 °C 30.6in /  1035.6hPa Calm     94% 0in /  0.0mm 11 W/m2
08:47 28 °F /  -2.2 °C 26.6 °F /  -3 °C 30.6in /  1035.6hPa Calm     94% 0in /  0.0mm 12 W/m2
08:52 28 °F /  -2.2 °C 26.6 °F /  -3 °C 30.6in /  1035.9hPa Calm   1mph /  1.6km/h 94% 0in /  0.0mm 12 W/m2
08:57 28 °F /  -2.2 °C 26.6 °F /  -3 °C 30.6in /  1035.9hPa Calm     94% 0in /  0.0mm 14 W/m2
09:02 28.2 °F /  -2.1 °C 26.8 °F /  -2.9 °C 30.6in /  1035.9hPa Calm     94% 0in /  0.0mm 14 W/m2
09:07 28.4 °F /  -2 °C 27 °F /  -2.8 °C 30.6in /  1035.9hPa Calm     94% 0in /  0.0mm 16 W/m2
09:12 28.4 °F /  -2 °C 27.1 °F /  -2.7 °C 30.6in /  1035.9hPa Calm     95% 0in /  0.0mm 16 W/m2
09:17 28.6 °F /  -1.9 °C 27.1 °F /  -2.7 °C 30.6in /  1035.6hPa Calm     94% 0in /  0.0mm 18 W/m2
09:22 28.6 °F /  -1.9 °C 27.1 °F /  -2.7 °C 30.6in /  1035.9hPa Calm     94% 0in /  0.0mm 19 W/m2
09:27 28.6 °F /  -1.9 °C 27.1 °F /  -2.7 °C 30.6in /  1035.9hPa Calm     94% 0in /  0.0mm 19 W/m2
09:32 28.6 °F /  -1.9 °C 27.1 °F /  -2.7 °C 30.6in /  1035.6hPa Calm     94% 0in /  0.0mm 19 W/m2
09:37 28.6 °F /  -1.9 °C 27.1 °F /  -2.7 °C 30.6in /  1035.6hPa Calm     94% 0in /  0.0mm 25 W/m2
09:42 28.8 °F /  -1.8 °C 27.3 °F /  -2.6 °C 30.6in /  1035.6hPa Calm     94% 0in /  0.0mm 21 W/m2
09:47 28.8 °F /  -1.8 °C 27.3 °F /  -2.6 °C 30.6in /  1035.6hPa Calm     94% 0in /  0.0mm 21 W/m2
09:52 28.8 °F /  -1.8 °C 27.3 °F /  -2.6 °C 30.6in /  1035.6hPa Calm     94% 0in /  0.0mm 23 W/m2
09:57 28.9 °F /  -1.7 °C 27.5 °F /  -2.5 °C 30.6in /  1035.6hPa Calm     94% 0in /  0.0mm 21 W/m2
10:02 28.9 °F /  -1.7 °C 27.5 °F /  -2.5 °C 30.6in /  1035.2hPa Calm     94% 0in /  0.0mm 21 W/m2
10:08 29.1 °F /  -1.6 °C 27.7 °F /  -2.4 °C 30.6in /  1035.2hPa Calm     94% 0in /  0.0mm 23 W/m2
10:13 29.3 °F /  -1.5 °C 27.9 °F /  -2.3 °C 30.6in /  1035.2hPa Calm     94% 0in /  0.0mm 23 W/m2
10:18 29.5 °F /  -1.4 °C 28.2 °F /  -2.1 °C 30.6in /  1035.2hPa Calm     95% 0in /  0.0mm 23 W/m2
10:23 29.7 °F /  -1.3 °C 28.2 °F /  -2.1 °C 30.6in /  1035.2hPa Calm     94% 0in /  0.0mm 25 W/m2
10:28 29.8 °F /  -1.2 °C 28.4 °F /  -2 °C 30.6in /  1035.2hPa Calm     94% 0in /  0.0mm 25 W/m2
10:33 30.4 °F /  -0.9 °C 28.9 °F /  -1.7 °C 30.6in /  1035.2hPa Calm     94% 0in /  0.0mm 25 W/m2
10:38 30.6 °F /  -0.8 °C 29.1 °F /  -1.6 °C 30.6in /  1035.6hPa Calm     94% 0in /  0.0mm 28 W/m2
10:43 30.7 °F /  -0.7 °C 28.9 °F /  -1.7 °C 30.6in /  1035.6hPa Calm     93% 0in /  0.0mm 25 W/m2
10:48 30.9 °F /  -0.6 °C 29.1 °F /  -1.6 °C 30.6in /  1035.6hPa Calm     93% 0in /  0.0mm 30 W/m2
10:53 30.9 °F /  -0.6 °C 29.1 °F /  -1.6 °C 30.6in /  1035.6hPa Calm     93% 0in /  0.0mm 32 W/m2
10:58 30.9 °F /  -0.6 °C 28.9 °F /  -1.7 °C 30.6in /  1035.6hPa Calm     92% 0in /  0.0mm 26 W/m2
11:03 31.3 °F /  -0.4 °C 29.3 °F /  -1.5 °C 30.6in /  1035.2hPa Calm     92% 0in /  0.0mm 33 W/m2
11:08 31.5 °F /  -0.3 °C 29.5 °F /  -1.4 °C 30.6in /  1035.2hPa Calm     92% 0in /  0.0mm 26 W/m2
11:13 31.6 °F /  -0.2 °C 29.7 °F /  -1.3 °C 30.6in /  1035.2hPa Calm     92% 0in /  0.0mm 33 W/m2
11:18 31.8 °F /  -0.1 °C 29.8 °F /  -1.2 °C 30.6in /  1035.2hPa Calm     92% 0in /  0.0mm 40 W/m2
11:23 32 °F /  0 °C 29.7 °F /  -1.3 °C 30.6in /  1035.6hPa Calm     91% 0in /  0.0mm 35 W/m2
11:28 32.2 °F /  0.1 °C 29.8 °F /  -1.2 °C 30.6in /  1035.6hPa Calm     91% 0in /  0.0mm 47 W/m2
11:33 32.4 °F /  0.2 °C 30 °F /  -1.1 °C 30.6in /  1035.6hPa Calm   1mph /  1.6km/h 91% 0in /  0.0mm 33 W/m2
11:38 32.5 °F /  0.3 °C 30.2 °F /  -1 °C 30.6in /  1035.6hPa Calm     91% 0in /  0.0mm 32 W/m2
11:43 33.1 °F /  0.6 °C 30.4 °F /  -0.9 °C 30.6in /  1035.6hPa Calm     90% 0in /  0.0mm 51 W/m2
11:48 33.3 °F /  0.7 °C 30.6 °F /  -0.8 °C 30.6in /  1035.6hPa Calm   1mph /  1.6km/h 90% 0in /  0.0mm 49 W/m2
11:53 33.3 °F /  0.7 °C 30.4 °F /  -0.9 °C 30.6in /  1035.6hPa ENE 2mph /  3.2km/h 3mph /  4.8km/h 89% 0in /  0.0mm 32 W/m2
11:58 33.4 °F /  0.8 °C 30.6 °F /  -0.8 °C 30.6in /  1035.6hPa Calm   1mph /  1.6km/h 89% 0in /  0.0mm 42 W/m2
12:03 33.6 °F /  0.9 °C 30.7 °F /  -0.7 °C 30.6in /  1035.6hPa Calm     89% 0in /  0.0mm 33 W/m2
12:08 34 °F /  1.1 °C 30.7 °F /  -0.7 °C 30.6in /  1035.6hPa ENE 0.9mph /  1.4km/h 2mph /  3.2km/h 88% 0in /  0.0mm 32 W/m2
12:13 34.2 °F /  1.2 °C 30.9 °F /  -0.6 °C 30.6in /  1035.6hPa Calm     88% 0in /  0.0mm 32 W/m2
12:18 34.3 °F /  1.3 °C 30.9 °F /  -0.6 °C 30.6in /  1035.6hPa Calm     87% 0in /  0.0mm 37 W/m2
12:23 34.3 °F /  1.3 °C 30.9 °F /  -0.6 °C 30.6in /  1035.6hPa Calm   3mph /  4.8km/h 87% 0in /  0.0mm 42 W/m2
12:28 34.5 °F /  1.4 °C 30.7 °F /  -0.7 °C 30.6in /  1035.2hPa Calm     86% 0in /  0.0mm 35 W/m2
12:33 34.5 °F /  1.4 °C 30.7 °F /  -0.7 °C 30.6in /  1035.2hPa Calm   2mph /  3.2km/h 86% 0in /  0.0mm 51 W/m2
12:38 34.5 °F /  1.4 °C 30.6 °F /  -0.8 °C 30.6in /  1035.2hPa Calm   1mph /  1.6km/h 85% 0in /  0.0mm 32 W/m2
12:43 34.9 °F /  1.6 °C 30.9 °F /  -0.6 °C 30.6in /  1035.2hPa Calm   1mph /  1.6km/h 85% 0in /  0.0mm 35 W/m2
12:48 35.1 °F /  1.7 °C 30.9 °F /  -0.6 °C 30.6in /  1035.2hPa NNE 2mph /  3.2km/h 3mph /  4.8km/h 85% 0in /  0.0mm 44 W/m2
12:53 35.4 °F /  1.9 °C 31.1 °F /  -0.5 °C 30.6in /  1035.2hPa Calm   4mph /  6.4km/h 84% 0in /  0.0mm 32 W/m2
12:58 36 °F /  2.2 °C 31.6 °F /  -0.2 °C 30.6in /  1035.2hPa Calm   2mph /  3.2km/h 84% 0in /  0.0mm 32 W/m2
13:03 36.1 °F /  2.3 °C 31.8 °F /  -0.1 °C 30.6in /  1035.2hPa Calm     84% 0in /  0.0mm 35 W/m2
13:08 36.3 °F /  2.4 °C 31.6 °F /  -0.2 °C 30.6in /  1035.2hPa Calm   4mph /  6.4km/h 83% 0in /  0.0mm 39 W/m2
13:13 36.5 °F /  2.5 °C 31.8 °F /  -0.1 °C 30.6in /  1035.2hPa Calm   1mph /  1.6km/h 83% 0in /  0.0mm 35 W/m2
13:18 36.7 °F /  2.6 °C 31.6 °F /  -0.2 °C 30.6in /  1034.9hPa Calm   2mph /  3.2km/h 82% 0in /  0.0mm 30 W/m2
13:23 36.7 °F /  2.6 °C 31.6 °F /  -0.2 °C 30.6in /  1034.9hPa NE 2.9mph /  4.7km/h 4mph /  6.4km/h 82% 0in /  0.0mm 28 W/m2
13:28 36.9 °F /  2.7 °C 31.8 °F /  -0.1 °C 30.6in /  1034.9hPa Calm   3mph /  4.8km/h 82% 0in /  0.0mm 35 W/m2
13:33 37 °F /  2.8 °C 32.4 °F /  0.2 °C 30.6in /  1034.9hPa NNE 4.9mph /  7.9km/h 5mph /  8km/h 83% 0in /  0.0mm 33 W/m2
13:38 37.4 °F /  3 °C 32.4 °F /  0.2 °C 30.6in /  1034.9hPa Calm   5mph /  8km/h 82% 0in /  0.0mm 46 W/m2
13:43 37.6 °F /  3.1 °C 32.5 °F /  0.3 °C 30.6in /  1034.5hPa NNW 2.9mph /  4.7km/h 3mph /  4.8km/h 82% 0in /  0.0mm 33 W/m2
13:48 37.8 °F /  3.2 °C 32.2 °F /  0.1 °C 30.6in /  1034.5hPa NNE 4mph /  6.4km/h 4mph /  6.4km/h 80% 0in /  0.0mm 32 W/m2
13:53 37.9 °F /  3.3 °C 32.4 °F /  0.2 °C 30.6in /  1034.5hPa NNE 4mph /  6.4km/h 8mph /  12.9km/h 80% 0in /  0.0mm 37 W/m2
13:58 38.1 °F /  3.4 °C 32.2 °F /  0.1 °C 30.6in /  1034.5hPa NNW 2mph /  3.2km/h 2mph /  3.2km/h 79% 0.01in /  0.2mm 40 W/m2
14:03 38.3 °F /  3.5 °C 32.4 °F /  0.2 °C 30.6in /  1034.5hPa NE 2mph /  3.2km/h 8mph /  12.9km/h 79% 0.01in /  0.2mm 33 W/m2
14:08 38.7 °F /  3.7 °C 32.7 °F /  0.4 °C 30.6in /  1034.5hPa NNE 2.9mph /  4.7km/h 6mph /  9.7km/h 79% 0.01in /  0.2mm 32 W/m2
14:13 38.8 °F /  3.8 °C 32.5 °F /  0.3 °C 30.6in /  1034.5hPa NNE 8mph /  12.9km/h 8mph /  12.9km/h 78% 0.01in /  0.2mm 32 W/m2
14:18 39 °F /  3.9 °C 31.8 °F /  -0.1 °C 30.5in /  1034.2hPa ENE 8.1mph /  13km/h 11mph /  17.7km/h 75% 0.01in /  0.2mm 44 W/m2
14:23 39.2 °F /  4 °C 31.3 °F /  -0.4 °C 30.5in /  1034.2hPa ENE 2mph /  3.2km/h 11mph /  17.7km/h 73% 0.01in /  0.2mm 33 W/m2
14:28 39.4 °F /  4.1 °C 31.1 °F /  -0.5 °C 30.5in /  1034.2hPa North 2.9mph /  4.7km/h 5mph /  8km/h 72% 0.01in /  0.2mm 30 W/m2
14:34 39.4 °F /  4.1 °C 30.7 °F /  -0.7 °C 30.5in /  1034.2hPa NNE 4mph /  6.4km/h 11mph /  17.7km/h 71% 0.01in /  0.2mm 28 W/m2
14:39 39.6 °F /  4.2 °C 30.9 °F /  -0.6 °C 30.5in /  1034.2hPa Calm   4mph /  6.4km/h 71% 0.01in /  0.2mm 28 W/m2
14:44 39.6 °F /  4.2 °C 30.9 °F /  -0.6 °C 30.5in /  1033.9hPa Calm   9mph /  14.5km/h 71% 0.01in /  0.2mm 26 W/m2
14:49 39.4 °F /  4.1 °C 30.7 °F /  -0.7 °C 30.5in /  1033.9hPa Calm   4mph /  6.4km/h 71% 0.01in /  0.2mm 25 W/m2
14:54 39.4 °F /  4.1 °C 30.7 °F /  -0.7 °C 30.5in /  1033.9hPa NE 2.9mph /  4.7km/h 5mph /  8km/h 71% 0.01in /  0.2mm 26 W/m2
14:59 39.4 °F /  4.1 °C 30.7 °F /  -0.7 °C 30.5in /  1033.9hPa ENE 4.9mph /  7.9km/h 8mph /  12.9km/h 71% 0in /  0.0mm 25 W/m2
15:04 39.4 °F /  4.1 °C 30.7 °F /  -0.7 °C 30.5in /  1033.9hPa NE 2.9mph /  4.7km/h 4mph /  6.4km/h 71% 0in /  0.0mm 25 W/m2
15:09 39.6 °F /  4.2 °C 30.9 °F /  -0.6 °C 30.5in /  1033.9hPa ENE 4.9mph /  7.9km/h 6mph /  9.7km/h 71% 0in /  0.0mm 25 W/m2
15:14 39.4 °F /  4.1 °C 30.7 °F /  -0.7 °C 30.5in /  1033.5hPa Calm   3mph /  4.8km/h 71% 0in /  0.0mm 23 W/m2
15:19 39.2 °F /  4 °C 30.6 °F /  -0.8 °C 30.5in /  1033.5hPa Calm   5mph /  8km/h 71% 0in /  0.0mm 23 W/m2
15:24 39.2 °F /  4 °C 30.9 °F /  -0.6 °C 30.5in /  1033.5hPa NE 0.9mph /  1.4km/h 3mph /  4.8km/h 72% 0in /  0.0mm 21 W/m2
15:29 39 °F /  3.9 °C 30.7 °F /  -0.7 °C 30.5in /  1033.5hPa Calm   5mph /  8km/h 72% 0in /  0.0mm 21 W/m2
15:34 39 °F /  3.9 °C 30.7 °F /  -0.7 °C 30.5in /  1033.5hPa ENE 2.9mph /  4.7km/h 5mph /  8km/h 72% 0in /  0.0mm 21 W/m2
15:39 39.2 °F /  4 °C 30.9 °F /  -0.6 °C 30.5in /  1033.5hPa Calm   1mph /  1.6km/h 72% 0in /  0.0mm 21 W/m2
15:44 38.8 °F /  3.8 °C 30.9 °F /  -0.6 °C 30.5in /  1033.5hPa ENE 2mph /  3.2km/h 5mph /  8km/h 73% 0in /  0.0mm 21 W/m2
15:50 38.7 °F /  3.7 °C 30.7 °F /  -0.7 °C 30.5in /  1033.5hPa ENE 2.9mph /  4.7km/h 3mph /  4.8km/h 73% 0in /  0.0mm 21 W/m2
15:55 38.7 °F /  3.7 °C 30.7 °F /  -0.7 °C 30.5in /  1033.5hPa Calm   4mph /  6.4km/h 73% 0in /  0.0mm 19 W/m2
16:00 38.7 °F /  3.7 °C 30.7 °F /  -0.7 °C 30.5in /  1033.5hPa Calm     73% 0in /  0.0mm 19 W/m2
16:05 38.5 °F /  3.6 °C 31.3 °F /  -0.4 °C 30.5in /  1033.2hPa Calm   3mph /  4.8km/h 75% 0in /  0.0mm 18 W/m2
16:10 38.1 °F /  3.4 °C 30.9 °F /  -0.6 °C 30.5in /  1033.5hPa Calm     75% 0in /  0.0mm 18 W/m2
16:15 37.6 °F /  3.1 °C 30.7 °F /  -0.7 °C 30.5in /  1033.5hPa Calm   1mph /  1.6km/h 76% 0in /  0.0mm 18 W/m2
16:20 37.2 °F /  2.9 °C 30.7 °F /  -0.7 °C 30.5in /  1033.5hPa Calm     77% 0in /  0.0mm 18 W/m2
16:25 37 °F /  2.8 °C 30.7 °F /  -0.7 °C 30.5in /  1033.5hPa Calm     78% 0in /  0.0mm 16 W/m2
16:30 36.9 °F /  2.7 °C 30.6 °F /  -0.8 °C 30.5in /  1033.5hPa Calm   1mph /  1.6km/h 78% 0in /  0.0mm 16 W/m2
16:35 36.7 °F /  2.6 °C 30.7 °F /  -0.7 °C 30.5in /  1033.5hPa NNW 2.9mph /  4.7km/h 4mph /  6.4km/h 79% 0in /  0.0mm 14 W/m2
16:40 36.9 °F /  2.7 °C 30.6 °F /  -0.8 °C 30.5in /  1033.5hPa North 0.9mph /  1.4km/h 2mph /  3.2km/h 78% 0in /  0.0mm 12 W/m2
16:45 37 °F /  2.8 °C 30.7 °F /  -0.7 °C 30.5in /  1033.5hPa Calm   4mph /  6.4km/h 78% 0in /  0.0mm 12 W/m2
16:50 37.2 °F /  2.9 °C 30.7 °F /  -0.7 °C 30.5in /  1033.5hPa Calm   2mph /  3.2km/h 77% 0in /  0.0mm 11 W/m2
16:55 37.4 °F /  3 °C 30.9 °F /  -0.6 °C 30.5in /  1033.5hPa Calm   4mph /  6.4km/h 77% 0in /  0.0mm 11 W/m2
17:00 37.6 °F /  3.1 °C 31.1 °F /  -0.5 °C 30.5in /  1033.5hPa Calm     77% 0in /  0.0mm 9 W/m2
17:05 37.6 °F /  3.1 °C 30.7 °F /  -0.7 °C 30.5in /  1033.5hPa Calm     76% 0in /  0.0mm 7 W/m2
17:10 37.2 °F /  2.9 °C 30.4 °F /  -0.9 °C 30.5in /  1033.5hPa Calm     76% 0in /  0.0mm 5 W/m2
17:15 37.2 °F /  2.9 °C 30.7 °F /  -0.7 °C 30.5in /  1033.5hPa Calm     77% 0in /  0.0mm 0 W/m2
17:20 36.9 °F /  2.7 °C 30.4 °F /  -0.9 °C 30.5in /  1033.5hPa Calm     77% 0in /  0.0mm 0 W/m2
17:25 36.5 °F /  2.5 °C 30.4 °F /  -0.9 °C 30.5in /  1033.5hPa Calm     78% 0in /  0.0mm 0 W/m2
17:30 36.1 °F /  2.3 °C 30.2 °F /  -1 °C 30.5in /  1033.5hPa Calm     79% 0in /  0.0mm 0 W/m2
17:35 35.8 °F /  2.1 °C 29.8 °F /  -1.2 °C 30.5in /  1033.5hPa Calm     79% 0in /  0.0mm 0 W/m2
17:40 35.8 °F /  2.1 °C 30.2 °F /  -1 °C 30.5in /  1033.5hPa Calm     80% 0in /  0.0mm 0 W/m2
17:45 35.6 °F /  2 °C 30 °F /  -1.1 °C 30.5in /  1033.5hPa Calm     80% 0in /  0.0mm 0 W/m2
17:50 35.4 °F /  1.9 °C 29.8 °F /  -1.2 °C 30.5in /  1033.5hPa Calm     80% 0in /  0.0mm 0 W/m2
17:55 35.2 °F /  1.8 °C 29.7 °F /  -1.3 °C 30.5in /  1033.5hPa Calm     80% 0in /  0.0mm 0 W/m2
18:00 35.2 °F /  1.8 °C 29.7 °F /  -1.3 °C 30.5in /  1033.9hPa NNW 2mph /  3.2km/h 2mph /  3.2km/h 80% 0in /  0.0mm 0 W/m2
18:05 35.2 °F /  1.8 °C 29.3 °F /  -1.5 °C 30.5in /  1033.9hPa Calm     79% 0in /  0.0mm 0 W/m2
18:10 35.2 °F /  1.8 °C 29.3 °F /  -1.5 °C 30.5in /  1033.9hPa Calm   2mph /  3.2km/h 79% 0in /  0.0mm 0 W/m2
18:15 35.2 °F /  1.8 °C 29.3 °F /  -1.5 °C 30.5in /  1033.9hPa Calm   2mph /  3.2km/h 79% 0in /  0.0mm 0 W/m2
18:20 35.2 °F /  1.8 °C 29.3 °F /  -1.5 °C 30.5in /  1033.9hPa NNW 2.9mph /  4.7km/h 4mph /  6.4km/h 79% 0in /  0.0mm 0 W/m2
18:25 35.1 °F /  1.7 °C 29.1 °F /  -1.6 °C 30.5in /  1033.9hPa Calm     79% 0in /  0.0mm 0 W/m2
18:30 35.2 °F /  1.8 °C 29.7 °F /  -1.3 °C 30.5in /  1033.9hPa North 0.9mph /  1.4km/h 2mph /  3.2km/h 80% 0in /  0.0mm 0 W/m2
18:35 35.4 °F /  1.9 °C 29.5 °F /  -1.4 °C 30.5in /  1033.9hPa Calm     79% 0in /  0.0mm 0 W/m2
18:40 35.8 °F /  2.1 °C 29.7 °F /  -1.3 °C 30.5in /  1033.9hPa Calm     78% 0in /  0.0mm 0 W/m2
18:45 36 °F /  2.2 °C 29.5 °F /  -1.4 °C 30.5in /  1033.9hPa Calm     77% 0in /  0.0mm 0 W/m2
18:50 36 °F /  2.2 °C 29.5 °F /  -1.4 °C 30.5in /  1033.9hPa Calm   3mph /  4.8km/h 77% 0in /  0.0mm 0 W/m2
18:55 36 °F /  2.2 °C 29.5 °F /  -1.4 °C 30.5in /  1033.9hPa Calm   4mph /  6.4km/h 77% 0in /  0.0mm 0 W/m2
19:00 36 °F /  2.2 °C 29.8 °F /  -1.2 °C 30.5in /  1033.9hPa NNE 4mph /  6.4km/h 5mph /  8km/h 78% 0in /  0.0mm 0 W/m2
19:05 36 °F /  2.2 °C 29.8 °F /  -1.2 °C 30.5in /  1033.9hPa Calm   1mph /  1.6km/h 78% 0in /  0.0mm 0 W/m2
19:10 35.8 °F /  2.1 °C 29.7 °F /  -1.3 °C 30.5in /  1033.9hPa North 2mph /  3.2km/h 3mph /  4.8km/h 78% 0in /  0.0mm 0 W/m2
19:15 35.8 °F /  2.1 °C 29.8 °F /  -1.2 °C 30.5in /  1034.2hPa Calm   2mph /  3.2km/h 79% 0in /  0.0mm 0 W/m2
19:20 35.8 °F /  2.1 °C 29.8 °F /  -1.2 °C 30.5in /  1034.2hPa Calm   1mph /  1.6km/h 79% 0in /  0.0mm 0 W/m2
19:25 35.4 °F /  1.9 °C 29.5 °F /  -1.4 °C 30.5in /  1034.2hPa Calm     79% 0in /  0.0mm 0 W/m2
19:30 35.1 °F /  1.7 °C 29.5 °F /  -1.4 °C 30.5in /  1034.2hPa Calm     80% 0in /  0.0mm 0 W/m2
19:35 34.7 °F /  1.5 °C 29.5 °F /  -1.4 °C 30.6in /  1034.5hPa Calm     81% 0in /  0.0mm 0 W/m2
19:40 34.5 °F /  1.4 °C 29.3 °F /  -1.5 °C 30.6in /  1034.5hPa Calm     81% 0in /  0.0mm 0 W/m2
19:45 34.2 °F /  1.2 °C 29.3 °F /  -1.5 °C 30.6in /  1034.5hPa Calm   1mph /  1.6km/h 82% 0in /  0.0mm 0 W/m2
19:50 33.8 °F /  1 °C 29.1 °F /  -1.6 °C 30.6in /  1034.5hPa Calm     83% 0in /  0.0mm 0 W/m2
19:55 33.6 °F /  0.9 °C 29.3 °F /  -1.5 °C 30.6in /  1034.5hPa Calm     84% 0in /  0.0mm 0 W/m2
20:00 33.8 °F /  1 °C 29.5 °F /  -1.4 °C 30.6in /  1034.5hPa Calm     84% 0in /  0.0mm 0 W/m2
20:05 34 °F /  1.1 °C 29.7 °F /  -1.3 °C 30.6in /  1034.5hPa NNW 0.9mph /  1.4km/h 1mph /  1.6km/h 84% 0in /  0.0mm 0 W/m2
20:10 34 °F /  1.1 °C 29.3 °F /  -1.5 °C 30.6in /  1034.5hPa Calm   1mph /  1.6km/h 83% 0in /  0.0mm 0 W/m2
20:15 34 °F /  1.1 °C 29.3 °F /  -1.5 °C 30.6in /  1034.5hPa Calm   2mph /  3.2km/h 83% 0in /  0.0mm 0 W/m2
20:20 34 °F /  1.1 °C 29.3 °F /  -1.5 °C 30.6in /  1034.5hPa Calm     83% 0in /  0.0mm 0 W/m2
20:25 34 °F /  1.1 °C 29.3 °F /  -1.5 °C 30.6in /  1034.5hPa Calm     83% 0in /  0.0mm 0 W/m2
20:30 33.8 °F /  1 °C 29.5 °F /  -1.4 °C 30.6in /  1034.5hPa Calm     84% 0in /  0.0mm 0 W/m2
20:35 33.4 °F /  0.8 °C 29.1 °F /  -1.6 °C 30.6in /  1034.5hPa Calm   2mph /  3.2km/h 84% 0in /  0.0mm 0 W/m2
20:40 33.4 °F /  0.8 °C 29.1 °F /  -1.6 °C 30.6in /  1034.5hPa Calm   1mph /  1.6km/h 84% 0in /  0.0mm 0 W/m2
20:45 33.3 °F /  0.7 °C 29.3 °F /  -1.5 °C 30.6in /  1034.5hPa NNE 0.9mph /  1.4km/h 1mph /  1.6km/h 85% 0in /  0.0mm 0 W/m2
20:50 33.3 °F /  0.7 °C 29.3 °F /  -1.5 °C 30.6in /  1034.5hPa Calm     85% 0in /  0.0mm 0 W/m2
20:55 33.1 °F /  0.6 °C 29.1 °F /  -1.6 °C 30.6in /  1034.5hPa Calm     85% 0in /  0.0mm 0 W/m2
21:00 32.9 °F /  0.5 °C 28.9 °F /  -1.7 °C 30.6in /  1034.5hPa NNW 0.9mph /  1.4km/h 1mph /  1.6km/h 85% 0in /  0.0mm 0 W/m2
21:05 32.7 °F /  0.4 °C 28.8 °F /  -1.8 °C 30.6in /  1034.5hPa Calm     85% 0in /  0.0mm 0 W/m2
21:11 32.5 °F /  0.3 °C 28.8 °F /  -1.8 °C 30.6in /  1034.5hPa Calm   3mph /  4.8km/h 86% 0in /  0.0mm 0 W/m2
21:16 32.5 °F /  0.3 °C 28.8 °F /  -1.8 °C 30.6in /  1034.5hPa Calm     86% 0in /  0.0mm 0 W/m2
21:21 32.5 °F /  0.3 °C 28.8 °F /  -1.8 °C 30.6in /  1034.5hPa Calm     86% 0in /  0.0mm 0 W/m2
21:26 32.5 °F /  0.3 °C 28.8 °F /  -1.8 °C 30.6in /  1034.5hPa Calm     86% 0in /  0.0mm 0 W/m2
21:31 32.4 °F /  0.2 °C 28.6 °F /  -1.9 °C 30.6in /  1034.5hPa Calm   1mph /  1.6km/h 86% 0in /  0.0mm 0 W/m2
21:36 32.4 °F /  0.2 °C 28.6 °F /  -1.9 °C 30.6in /  1034.5hPa Calm   4mph /  6.4km/h 86% 0in /  0.0mm 0 W/m2
21:41 32.2 °F /  0.1 °C 28.4 °F /  -2 °C 30.6in /  1034.5hPa Calm   2mph /  3.2km/h 86% 0in /  0.0mm 0 W/m2
21:46 32.2 °F /  0.1 °C 28.8 °F /  -1.8 °C 30.6in /  1034.5hPa Calm   1mph /  1.6km/h 87% 0in /  0.0mm 0 W/m2
21:51 32 °F /  0 °C 28.6 °F /  -1.9 °C 30.6in /  1034.5hPa Calm   1mph /  1.6km/h 87% 0in /  0.0mm 0 W/m2
21:56 32 °F /  0 °C 28.6 °F /  -1.9 °C 30.6in /  1034.5hPa Calm     87% 0in /  0.0mm 0 W/m2
22:01 32 °F /  0 °C 28.9 °F /  -1.7 °C 30.6in /  1034.5hPa North 0.9mph /  1.4km/h 3mph /  4.8km/h 88% 0in /  0.0mm 0 W/m2
22:06 32 °F /  0 °C 28.9 °F /  -1.7 °C 30.6in /  1034.5hPa Calm   1mph /  1.6km/h 88% 0in /  0.0mm 0 W/m2
22:11 31.8 °F /  -0.1 °C 28.8 °F /  -1.8 °C 30.6in /  1034.9hPa Calm   3mph /  4.8km/h 88% 0in /  0.0mm 0 W/m2
22:16 31.8 °F /  -0.1 °C 28.8 °F /  -1.8 °C 30.6in /  1034.5hPa Calm   2mph /  3.2km/h 88% 0in /  0.0mm 0 W/m2
22:21 31.8 °F /  -0.1 °C 28.8 °F /  -1.8 °C 30.6in /  1034.5hPa Calm   3mph /  4.8km/h 88% 0in /  0.0mm 0 W/m2
22:26 31.8 °F /  -0.1 °C 28.9 °F /  -1.7 °C 30.6in /  1034.9hPa Calm   2mph /  3.2km/h 89% 0in /  0.0mm 0 W/m2
22:31 31.8 °F /  -0.1 °C 28.9 °F /  -1.7 °C 30.6in /  1034.9hPa Calm   3mph /  4.8km/h 89% 0in /  0.0mm 0 W/m2
22:37 31.8 °F /  -0.1 °C 29.3 °F /  -1.5 °C 30.6in /  1034.9hPa Calm   1mph /  1.6km/h 90% 0in /  0.0mm 0 W/m2
22:42 31.8 °F /  -0.1 °C 29.3 °F /  -1.5 °C 30.6in /  1034.9hPa Calm   4mph /  6.4km/h 90% 0in /  0.0mm 0 W/m2
22:47 31.8 °F /  -0.1 °C 29.5 °F /  -1.4 °C 30.6in /  1034.9hPa Calm   2mph /  3.2km/h 91% 0in /  0.0mm 0 W/m2
22:52 31.8 °F /  -0.1 °C 29.5 °F /  -1.4 °C 30.6in /  1034.9hPa Calm   4mph /  6.4km/h 91% 0in /  0.0mm 0 W/m2
22:57 31.8 °F /  -0.1 °C 29.5 °F /  -1.4 °C 30.6in /  1034.9hPa Calm     91% 0in /  0.0mm 0 W/m2
23:02 31.8 °F /  -0.1 °C 29.5 °F /  -1.4 °C 30.6in /  1034.9hPa Calm   3mph /  4.8km/h 91% 0in /  0.0mm 0 W/m2
23:07 31.8 °F /  -0.1 °C 29.8 °F /  -1.2 °C 30.6in /  1034.9hPa Calm   1mph /  1.6km/h 92% 0in /  0.0mm 0 W/m2
23:12 32 °F /  0 °C 30 °F /  -1.1 °C 30.6in /  1035.2hPa Calm     92% 0in /  0.0mm 0 W/m2
23:17 31.8 °F /  -0.1 °C 29.8 °F /  -1.2 °C 30.6in /  1035.2hPa Calm   1mph /  1.6km/h 92% 0in /  0.0mm 0 W/m2
23:22 31.8 °F /  -0.1 °C 30 °F /  -1.1 °C 30.6in /  1035.2hPa Calm     93% 0in /  0.0mm 0 W/m2
23:27 32.2 °F /  0.1 °C 30.4 °F /  -0.9 °C 30.6in /  1035.2hPa Calm     93% 0in /  0.0mm 0 W/m2
23:32 32.2 °F /  0.1 °C 30.4 °F /  -0.9 °C 30.6in /  1035.6hPa Calm   2mph /  3.2km/h 93% 0in /  0.0mm 0 W/m2
23:37 32.4 °F /  0.2 °C 30.6 °F /  -0.8 °C 30.6in /  1035.6hPa Calm     93% 0in /  0.0mm 0 W/m2
23:42 32.5 °F /  0.3 °C 30.7 °F /  -0.7 °C 30.6in /  1035.2hPa Calm   2mph /  3.2km/h 93% 0in /  0.0mm 0 W/m2
23:47 32.5 °F /  0.3 °C 30.7 °F /  -0.7 °C 30.6in /  1035.2hPa Calm     93% 0in /  0.0mm 0 W/m2
23:52 32.7 °F /  0.4 °C 30.9 °F /  -0.6 °C 30.6in /  1035.2hPa Calm     93% 0in /  0.0mm 0 W/m2
23:57 32.7 °F /  0.4 °C 30.9 °F /  -0.6 °C 30.6in /  1035.2hPa Calm     93% 0in /  0.0mm 0 W/m2
Juneau County Weather
Compliments of Weather Underground - 4 mb